Nar Weather



Nar's Current Weather

Temprature 11.89o overcast clouds

overcast clouds

Rain: 0 %

Min Temprature11.89o
Max Temprature11.89o
Humidity46
Wind Speed1.8 m/h
Sun Rise06:36:40
Sun Set17:58:52
Current Time: 27-Feb-2020 01:16:13
Lat/Lon: 33.4, 73.82




Nar's Geo Location



Nar's Weather Forecast

Time Overall Temp Min Temp Max Temp Humidity Wind Speed Rain
27-Feb-2020 (Thu)
02:00:00 overcast clouds 11.890 11.890 11.890 46 1.8 m/h 0 %
05:00:00 overcast clouds 11.900 11.900 11.900 43 1.68 m/h 0 %
08:00:00 overcast clouds 14.070 14.070 14.070 47 0.99 m/h 0 %
11:00:00 overcast clouds 18.990 18.990 18.990 33 0.88 m/h 0 %
14:00:00 broken clouds 20.910 20.910 20.910 31 1.92 m/h 0 %
17:00:00 scattered clouds 19.840 19.840 19.840 43 1 m/h 0 %
20:00:00 clear sky 14.610 14.610 14.610 47 0.96 m/h 0 %
23:00:00 clear sky 13.230 13.230 13.230 50 1.52 m/h 0 %
28-Feb-2020 (Fri)
02:00:00 light rain 12.900 12.900 12.900 55 2.36 m/h 31 %
05:00:00 overcast clouds 12.530 12.530 12.530 55 1.42 m/h 0 %
08:00:00 light rain 15.170 15.170 15.170 55 0.3 m/h 19 %
11:00:00 light rain 18.980 18.980 18.980 43 1.73 m/h 12 %
14:00:00 overcast clouds 20.060 20.060 20.060 41 1.33 m/h 0 %
17:00:00 overcast clouds 18.880 18.880 18.880 50 1.22 m/h 0 %
20:00:00 overcast clouds 14.350 14.350 14.350 56 1.62 m/h 0 %
23:00:00 light rain 13.780 13.780 13.780 60 2.17 m/h 50 %
29-Feb-2020 (Sat)
02:00:00 light rain 13.120 13.120 13.120 65 2.09 m/h 31 %
05:00:00 light rain 11.830 11.830 11.830 77 3.17 m/h 138 %
08:00:00 moderate rain 11.700 11.700 11.700 84 3.76 m/h 525 %
11:00:00 light rain 16.240 16.240 16.240 60 0.85 m/h 88 %
14:00:00 light rain 18.210 18.210 18.210 52 3.07 m/h 119 %
17:00:00 light rain 16.550 16.550 16.550 62 2.15 m/h 62 %
20:00:00 light rain 12.050 12.050 12.050 71 1.06 m/h 50 %
23:00:00 scattered clouds 11.940 11.940 11.940 66 1.96 m/h 0 %
01-Mar-2020 (Sun)
02:00:00 overcast clouds 11.340 11.340 11.340 61 1.77 m/h 0 %
05:00:00 light rain 11.300 11.300 11.300 66 1.62 m/h 31 %
08:00:00 overcast clouds 13.550 13.550 13.550 66 2.01 m/h 0 %
11:00:00 scattered clouds 18.770 18.770 18.770 44 2.16 m/h 0 %
14:00:00 clear sky 21.060 21.060 21.060 38 0.78 m/h 0 %
17:00:00 scattered clouds 19.400 19.400 19.400 51 0.81 m/h 0 %
20:00:00 few clouds 13.860 13.860 13.860 60 1.94 m/h 0 %
23:00:00 clear sky 12.760 12.760 12.760 58 1.79 m/h 0 %
02-Mar-2020 (Mon)
02:00:00 clear sky 11.850 11.850 11.850 57 1.99 m/h 0 %
05:00:00 clear sky 11.120 11.120 11.120 56 2.13 m/h 0 %
08:00:00 scattered clouds 13.830 13.830 13.830 58 1.96 m/h 0 %
11:00:00 scattered clouds 20.420 20.420 20.420 36 0.62 m/h 0 %
14:00:00 scattered clouds 22.040 22.040 22.040 29 0.9 m/h 0 %
17:00:00 scattered clouds 20.040 20.040 20.040 43 2.33 m/h 0 %
20:00:00 scattered clouds 14.630 14.630 14.630 51 1.56 m/h 0 %
23:00:00 few clouds 13.100 13.100 13.100 54 1.71 m/h 0 %

Famous Cities (61)